Time;durP1;ratioP1;P1;durP2;ratioP2;P2;SDS_P1;SDS_P2;PMS_P1;PMS_P2;Temp;Humidity;BMP_temperature;BMP_pressure;BME280_temperature;BME280_humidity;BME280_pressure;Samples;Min_cycle;Max_cycle;Signal;HPM_P1;HPM_P2
2021/07/06 00:01:26;;;;;;;;;4.00;4.00;;;;;-147.17;100.00;59696.56;4974034;28;51473;-50
2021/07/06 00:03:53;;;;;;;;;4.00;3.00;;;;;-147.17;100.00;59696.56;4974288;28;51112;-51
2021/07/06 00:06:19;;;;;;;;;4.00;4.00;;;;;-147.17;100.00;59696.56;4973549;28;51149;-51
2021/07/06 00:08:44;;;;;;;;;3.00;3.00;;;;;-147.17;100.00;59696.56;4974944;28;51137;-51
2021/07/06 00:11:09;;;;;;;;;2.67;2.67;;;;;-147.17;100.00;59696.56;4955936;28;52631;-51
2021/07/06 00:13:35;;;;;;;;;3.00;3.00;;;;;-147.17;100.00;59696.56;4972794;28;51080;-51
2021/07/06 00:16:00;;;;;;;;;3.33;3.00;;;;;-147.17;100.00;59696.56;4973815;28;51270;-49
2021/07/06 00:18:25;;;;;;;;;3.00;3.00;;;;;-147.17;100.00;59696.56;4974878;28;51117;-51
2021/07/06 00:20:51;;;;;;;;;3.00;3.00;;;;;-147.17;100.00;59696.56;4974527;28;51825;-50
2021/07/06 00:23:16;;;;;;;;;2.33;2.33;;;;;-147.17;100.00;59696.56;4973453;28;51124;-51
2021/07/06 00:25:41;;;;;;;;;2.67;2.00;;;;;-147.17;100.00;59696.56;4973518;28;51055;-48
2021/07/06 00:28:07;;;;;;;;;4.67;4.00;;;;;-147.17;100.00;59696.56;4972739;28;51247;-48
2021/07/06 00:30:32;;;;;;;;;1.00;1.00;;;;;-147.17;100.00;59696.56;4973695;28;52035;-51
2021/07/06 00:32:58;;;;;;;;;2.00;2.00;;;;;-147.17;100.00;59696.56;4973804;28;51057;-51
2021/07/06 00:35:24;;;;;;;;;3.00;3.00;;;;;-147.17;100.00;59696.56;4974566;28;51172;-50
2021/07/06 00:37:50;;;;;;;;;1.00;1.00;;;;;-147.17;100.00;59696.56;4975469;28;51081;-52
2021/07/06 00:40:16;;;;;;;;;1.00;1.00;;;;;-147.17;100.00;59696.56;4970555;28;51903;-50
2021/07/06 00:42:46;;;;;;;;;2.00;1.67;;;;;-147.17;100.00;59696.56;4972746;28;51148;-51
2021/07/06 00:45:13;;;;;;;;;2.00;1.00;;;;;-147.17;100.00;59696.56;4974359;28;51230;-49
2021/07/06 00:47:41;;;;;;;;;2.00;2.00;;;;;-147.17;100.00;59696.56;4972218;28;51212;-50
2021/07/06 00:50:10;;;;;;;;;1.00;1.00;;;;;-147.17;100.00;59696.56;4973773;28;52162;-51
2021/07/06 00:52:36;;;;;;;;;0.33;0.33;;;;;-147.17;100.00;59696.56;4973558;28;51008;-50
2021/07/06 00:55:03;;;;;;;;;2.33;2.00;;;;;-147.17;100.00;59696.56;4950170;28;51382;-51
2021/07/06 00:57:29;;;;;;;;;1.00;1.00;;;;;-147.17;100.00;59696.56;4973854;28;51777;-52
2021/07/06 01:00:24;;;;;;;;;2.00;2.00;;;;;-147.17;100.00;59696.56;4974031;28;51894;-52
2021/07/06 01:02:50;;;;;;;;;1.00;1.00;;;;;-147.17;100.00;59696.56;4964011;28;51158;-51
2021/07/06 01:05:23;;;;;;;;;1.00;1.00;;;;;-147.17;100.00;59696.56;4974145;28;51161;-49
2021/07/06 01:07:49;;;;;;;;;0.00;0.00;;;;;-147.17;100.00;59696.56;4973367;28;51311;-52
2021/07/06 01:10:15;;;;;;;;;1.00;1.00;;;;;-147.17;100.00;59696.56;4971099;28;52012;-52
2021/07/06 01:12:42;;;;;;;;;0.00;0.00;;;;;-147.17;100.00;59696.56;4972653;28;50906;-48
2021/07/06 01:15:11;;;;;;;;;1.00;1.00;;;;;-147.17;100.00;59696.56;4973804;28;51106;-49
2021/07/06 01:17:40;;;;;;;;;0.67;0.67;;;;;-147.17;100.00;59696.56;4972892;28;51162;-51
2021/07/06 01:20:09;;;;;;;;;1.00;1.00;;;;;-147.17;100.00;59696.56;4973284;28;51916;-49
2021/07/06 01:22:34;;;;;;;;;0.00;0.00;;;;;-147.17;100.00;59696.56;4939771;28;51125;-51
2021/07/06 01:25:02;;;;;;;;;1.00;1.00;;;;;-147.17;100.00;59696.56;4973672;28;51009;-48
2021/07/06 01:27:28;;;;;;;;;0.00;0.00;;;;;-147.17;100.00;59696.56;4971895;28;50913;-49
2021/07/06 01:29:54;;;;;;;;;1.00;1.00;;;;;-147.17;100.00;59696.56;4973072;28;51766;-48
2021/07/06 01:32:20;;;;;;;;;1.33;1.00;;;;;-147.17;100.00;59696.56;4972546;28;51038;-48
2021/07/06 01:34:45;;;;;;;;;0.00;0.00;;;;;-147.17;100.00;59696.56;4973383;28;51100;-49
2021/07/06 01:37:16;;;;;;;;;0.00;0.00;;;;;-147.17;100.00;59696.56;4973172;28;51127;-48
2021/07/06 01:39:41;;;;;;;;;0.00;0.00;;;;;-147.17;100.00;59696.56;4971995;28;52067;-49
2021/07/06 01:42:06;;;;;;;;;0.33;0.33;;;;;-147.17;100.00;59696.56;4972549;28;51291;-51
2021/07/06 01:44:32;;;;;;;;;1.00;0.33;;;;;-147.17;100.00;59696.56;4973921;28;51237;-52
2021/07/06 01:46:57;;;;;;;;;0.00;0.00;;;;;-147.17;100.00;59696.56;4955670;28;51411;-51
2021/07/06 01:49:22;;;;;;;;;0.00;0.00;;;;;-147.17;100.00;59696.56;4973207;28;52038;-51
2021/07/06 01:51:48;;;;;;;;;0.67;0.00;;;;;-147.17;100.00;59696.56;4973465;28;50841;-49
2021/07/06 01:54:16;;;;;;;;;0.00;0.00;;;;;-147.17;100.00;59696.56;4972615;28;51078;-50
2021/07/06 01:56:44;;;;;;;;;2.00;0.67;;;;;-147.17;100.00;59696.56;4972813;28;51039;-51
2021/07/06 01:59:10;;;;;;;;;0.00;0.00;;;;;-147.17;100.00;59696.56;4973155;28;52824;-52
2021/07/06 02:01:36;;;;;;;;;0.00;0.00;;;;;-147.17;100.00;59696.56;4970666;28;51188;-49
2021/07/06 02:04:02;;;;;;;;;0.00;0.00;;;;;-147.17;100.00;59696.56;4973115;28;51069;-50
2021/07/06 02:06:28;;;;;;;;;0.33;0.00;;;;;-147.17;100.00;59696.56;4972532;28;50898;-51
2021/07/06 02:08:54;;;;;;;;;0.00;0.00;;;;;-147.17;100.00;59696.56;4973061;28;51708;-50
2021/07/06 02:11:19;;;;;;;;;0.00;0.00;;;;;-147.17;100.00;59696.56;4973097;28;51025;-52
2021/07/06 02:13:45;;;;;;;;;0.00;0.00;;;;;-147.17;100.00;59696.56;4967501;28;51225;-50
2021/07/06 02:16:11;;;;;;;;;0.33;0.33;;;;;-147.17;100.00;59696.56;4969297;28;50919;-50
2021/07/06 02:18:36;;;;;;;;;0.00;0.00;;;;;-147.17;100.00;59696.56;4972619;28;51141;-50
2021/07/06 02:21:02;;;;;;;;;1.67;0.00;;;;;-147.17;100.00;59696.56;4972215;28;51115;-50
2021/07/06 02:23:29;;;;;;;;;0.00;0.00;;;;;-147.17;100.00;59696.56;4973269;28;51263;-52
2021/07/06 02:25:56;;;;;;;;;0.00;0.00;;;;;-147.17;100.00;59696.56;4972422;28;50970;-51
2021/07/06 02:28:22;;;;;;;;;0.00;0.00;;;;;-147.17;100.00;59696.56;4972909;28;52071;-50
2021/07/06 02:30:48;;;;;;;;;0.00;0.00;;;;;-147.17;100.00;59696.56;4967735;28;50933;-50
2021/07/06 02:33:14;;;;;;;;;0.00;0.00;;;;;-147.17;100.00;59696.56;4970372;28;51197;-49
2021/07/06 02:35:40;;;;;;;;;0.00;0.00;;;;;-147.17;100.00;59696.56;4973037;28;50942;-49
2021/07/06 02:38:06;;;;;;;;;0.00;0.00;;;;;-147.17;100.00;59696.56;4983168;28;51612;-52
2021/07/06 02:40:31;;;;;;;;;1.33;0.67;;;;;-147.17;100.00;59696.56;4974416;28;51007;-49
2021/07/06 02:42:58;;;;;;;;;0.67;0.00;;;;;-147.17;100.00;59696.56;4971627;28;51057;-49
2021/07/06 02:45:24;;;;;;;;;0.00;0.00;;;;;-147.17;100.00;59696.56;4951735;28;50998;-49
2021/07/06 02:47:50;;;;;;;;;0.00;0.00;;;;;-147.17;100.00;59696.56;4970396;28;51907;-48
2021/07/06 02:50:17;;;;;;;;;0.33;0.00;;;;;-147.17;100.00;59696.56;4972098;28;51244;-50
2021/07/06 02:52:43;;;;;;;;;0.00;0.00;;;;;-147.17;100.00;59696.56;4976027;28;50983;-48
2021/07/06 02:55:09;;;;;;;;;0.00;0.00;;;;;-147.17;100.00;59696.56;4958682;28;51285;-50
2021/07/06 02:57:42;;;;;;;;;0.00;0.00;;;;;-147.17;100.00;59696.56;4975073;28;50890;-52
2021/07/06 03:00:08;;;;;;;;;0.00;0.00;;;;;-147.17;100.00;59696.56;4975855;28;51116;-52
2021/07/06 03:02:35;;;;;;;;;0.00;0.00;;;;;-147.17;100.00;59696.56;4973958;28;51161;-52
2021/07/06 03:05:00;;;;;;;;;0.00;0.00;;;;;-147.17;100.00;59696.56;4975672;28;50912;-50
2021/07/06 03:07:25;;;;;;;;;0.00;0.00;;;;;-147.17;100.00;59696.56;4974685;28;51700;-51
2021/07/06 03:09:51;;;;;;;;;0.00;0.00;;;;;-147.17;100.00;59696.56;4976129;28;51091;-50
2021/07/06 03:12:16;;;;;;;;;0.00;0.00;;;;;-147.17;100.00;59696.56;4974797;28;51661;-51
2021/07/06 03:14:41;;;;;;;;;0.00;0.00;;;;;-147.17;100.00;59696.56;4976297;28;51049;-52
2021/07/06 03:17:07;;;;;;;;;0.00;0.00;;;;;-147.17;100.00;59696.56;4974833;28;52008;-50
2021/07/06 03:19:32;;;;;;;;;0.00;0.00;;;;;-147.17;100.00;59696.56;4975286;28;51022;-49
2021/07/06 03:21:57;;;;;;;;;0.00;0.00;;;;;-147.17;100.00;59696.56;4975926;28;51568;-49
2021/07/06 03:24:23;;;;;;;;;0.33;0.00;;;;;-147.17;100.00;59696.56;4973016;28;51413;-51
2021/07/06 03:26:48;;;;;;;;;0.00;0.00;;;;;-147.17;100.00;59696.56;4975524;28;52450;-51
2021/07/06 03:29:13;;;;;;;;;0.00;0.00;;;;;-147.17;100.00;59696.56;4975523;28;51002;-50
2021/07/06 03:31:39;;;;;;;;;0.67;0.67;;;;;-147.17;100.00;59696.56;4972008;28;51141;-50
2021/07/06 03:34:04;;;;;;;;;1.00;1.00;;;;;-147.17;100.00;59696.56;4973601;28;50933;-50
2021/07/06 03:36:29;;;;;;;;;0.00;0.00;;;;;-147.17;100.00;59696.56;4975541;28;51072;-51
2021/07/06 03:38:55;;;;;;;;;1.33;1.33;;;;;-147.17;100.00;59696.56;4975497;28;51394;-49
2021/07/06 03:41:20;;;;;;;;;0.67;0.33;;;;;-147.17;100.00;59696.56;4974228;28;51093;-51
2021/07/06 03:43:45;;;;;;;;;0.33;0.33;;;;;-147.17;100.00;59696.56;4974656;28;51241;-49
2021/07/06 03:46:11;;;;;;;;;0.33;0.33;;;;;-147.17;100.00;59696.56;4957897;28;53746;-49
2021/07/06 03:48:36;;;;;;;;;0.33;0.33;;;;;-147.17;100.00;59696.56;4970632;28;51130;-49
2021/07/06 03:51:01;;;;;;;;;0.33;0.00;;;;;-147.17;100.00;59696.56;4974513;28;50960;-52
2021/07/06 03:53:27;;;;;;;;;0.67;0.67;;;;;-147.17;100.00;59696.56;4973529;28;51018;-49
2021/07/06 03:55:52;;;;;;;;;0.33;0.33;;;;;-147.17;100.00;59696.56;4974778;28;51857;-49
2021/07/06 03:58:17;;;;;;;;;0.33;0.33;;;;;-147.17;100.00;59696.56;4975008;28;50995;-49
2021/07/06 04:00:43;;;;;;;;;0.67;0.67;;;;;-147.17;100.00;59696.56;4974206;28;51056;-49
2021/07/06 04:03:08;;;;;;;;;1.00;0.00;;;;;-147.17;100.00;59696.56;4972929;28;51122;-49
2021/07/06 04:05:33;;;;;;;;;0.00;0.00;;;;;-147.17;100.00;59696.56;4974629;28;51938;-50
2021/07/06 04:07:59;;;;;;;;;1.00;0.67;;;;;-147.17;100.00;59696.56;4974797;28;51168;-51
2021/07/06 04:10:24;;;;;;;;;0.67;0.33;;;;;-147.17;100.00;59696.56;4974376;28;50881;-50
2021/07/06 04:12:50;;;;;;;;;0.00;0.00;;;;;-147.17;100.00;59696.56;4972485;28;51101;-50
2021/07/06 04:15:17;;;;;;;;;2.00;1.00;;;;;-147.17;100.00;59696.56;4974576;28;51121;-53
2021/07/06 04:17:43;;;;;;;;;0.00;0.00;;;;;-147.17;100.00;59696.56;4974317;28;51310;-51
2021/07/06 04:20:10;;;;;;;;;0.33;0.00;;;;;-147.17;100.00;59696.56;4974889;28;51106;-52
2021/07/06 04:22:36;;;;;;;;;1.00;1.00;;;;;-147.17;100.00;59696.56;4973120;28;51251;-50
2021/07/06 04:25:03;;;;;;;;;1.00;0.00;;;;;-147.17;100.00;59696.56;4974769;28;51123;-53
2021/07/06 04:27:28;;;;;;;;;1.00;0.50;;;;;-147.17;100.00;59696.56;4974619;28;51045;-50
2021/07/06 04:29:54;;;;;;;;;0.67;0.67;;;;;-147.17;100.00;59696.56;4973748;28;50991;-51
2021/07/06 04:32:19;;;;;;;;;0.33;0.00;;;;;-147.17;100.00;59696.56;4972292;28;51073;-51
2021/07/06 04:34:45;;;;;;;;;2.00;0.33;;;;;-147.17;100.00;59696.56;4966099;28;51841;-52
2021/07/06 04:37:11;;;;;;;;;1.00;0.67;;;;;-147.17;100.00;59696.56;4978509;28;51057;-52
2021/07/06 04:39:37;;;;;;;;;1.00;1.00;;;;;-147.17;100.00;59696.56;4961533;28;52727;-50
2021/07/06 04:42:03;;;;;;;;;1.00;1.00;;;;;-147.17;100.00;59696.56;4973379;28;51374;-50
2021/07/06 04:44:28;;;;;;;;;0.33;0.33;;;;;-147.17;100.00;59696.56;4956930;28;51664;-49
2021/07/06 04:46:53;;;;;;;;;1.67;0.00;;;;;-147.17;100.00;59696.56;4973945;28;51125;-51
2021/07/06 04:49:18;;;;;;;;;0.67;0.00;;;;;-147.17;100.00;59696.56;4969449;28;51216;-52
2021/07/06 04:51:44;;;;;;;;;1.67;1.00;;;;;-147.17;100.00;59696.56;4970551;28;51331;-47
2021/07/06 04:54:09;;;;;;;;;2.00;1.00;;;;;-147.17;100.00;59696.56;4974191;28;51789;-48
2021/07/06 04:56:34;;;;;;;;;1.00;1.00;;;;;-147.17;100.00;59696.56;4971162;28;51139;-49
2021/07/06 04:59:00;;;;;;;;;2.00;2.00;;;;;-147.17;100.00;59696.56;4974055;28;51204;-48
2021/07/06 05:01:25;;;;;;;;;3.33;1.67;;;;;-147.17;100.00;59696.56;4974101;28;51339;-48
2021/07/06 05:03:51;;;;;;;;;2.00;1.00;;;;;-147.17;100.00;59696.56;4972746;28;51771;-48
2021/07/06 05:06:18;;;;;;;;;0.67;0.67;;;;;-147.17;100.00;59696.56;4971407;28;51198;-52
2021/07/06 05:08:44;;;;;;;;;2.33;0.67;;;;;-147.17;100.00;59696.56;4966810;28;50852;-49
2021/07/06 05:11:09;;;;;;;;;0.00;0.00;;;;;-147.17;100.00;59696.56;4972982;28;51419;-51
2021/07/06 05:13:34;;;;;;;;;1.00;1.00;;;;;-147.17;100.00;59696.56;4973271;28;51103;-50
2021/07/06 05:16:00;;;;;;;;;1.00;1.00;;;;;-147.17;100.00;59696.56;4973794;28;50927;-50
2021/07/06 05:18:25;;;;;;;;;1.00;0.00;;;;;-147.17;100.00;59696.56;4973680;28;51373;-51
2021/07/06 05:20:51;;;;;;;;;0.00;0.00;;;;;-147.17;100.00;59696.56;4974189;28;50902;-49
2021/07/06 05:23:16;;;;;;;;;3.00;2.00;;;;;-147.17;100.00;59696.56;4973548;28;51882;-51
2021/07/06 05:25:41;;;;;;;;;1.00;1.00;;;;;-147.17;100.00;59696.56;4971964;28;50864;-50
2021/07/06 05:28:07;;;;;;;;;1.00;1.00;;;;;-147.17;100.00;59696.56;4964432;28;51467;-49
2021/07/06 05:30:32;;;;;;;;;2.00;1.00;;;;;-147.17;100.00;59696.56;4956048;28;51228;-49
2021/07/06 05:32:58;;;;;;;;;5.00;2.00;;;;;-147.17;100.00;59696.56;4973166;28;51870;-48
2021/07/06 05:35:24;;;;;;;;;1.00;1.00;;;;;-147.17;100.00;59696.56;4973397;28;51268;-50
2021/07/06 05:37:49;;;;;;;;;1.00;0.67;;;;;-147.17;100.00;59696.56;4983050;28;51103;-51
2021/07/06 05:40:15;;;;;;;;;1.00;0.67;;;;;-147.17;100.00;59696.56;4977417;28;51112;-52
2021/07/06 05:42:43;;;;;;;;;1.00;0.67;;;;;-147.17;100.00;59696.56;4969080;28;52845;-51
2021/07/06 05:45:09;;;;;;;;;1.00;1.00;;;;;-147.17;100.00;59696.56;4952083;28;51093;-51
2021/07/06 05:47:39;;;;;;;;;1.00;1.00;;;;;-147.17;100.00;59696.56;4969695;28;50904;-52
2021/07/06 05:50:07;;;;;;;;;2.00;1.67;;;;;-147.17;100.00;59696.56;4970123;28;51152;-48
2021/07/06 05:52:34;;;;;;;;;1.00;1.00;;;;;-147.17;100.00;59696.56;4972081;28;51797;-50
2021/07/06 05:55:01;;;;;;;;;1.33;1.00;;;;;-147.17;100.00;59696.56;4973019;28;51031;-50
2021/07/06 05:57:29;;;;;;;;;2.00;1.00;;;;;-147.17;100.00;59696.56;4973036;28;50924;-50
2021/07/06 06:00:00;;;;;;;;;2.33;2.33;;;;;-147.17;100.00;59696.56;4971615;28;51119;-52
2021/07/06 06:02:26;;;;;;;;;2.00;2.00;;;;;-147.17;100.00;59696.56;4971967;28;52951;-50
2021/07/06 06:04:51;;;;;;;;;1.00;1.00;;;;;-147.17;100.00;59696.56;4972513;28;51013;-50
2021/07/06 06:07:17;;;;;;;;;1.33;1.33;;;;;-147.17;100.00;59696.56;4968701;28;50834;-53
2021/07/06 06:09:43;;;;;;;;;2.67;2.00;;;;;-147.17;100.00;59696.56;4972970;28;51069;-50
2021/07/06 06:12:09;;;;;;;;;1.00;1.00;;;;;-147.17;100.00;59696.56;4972842;28;51962;-53
2021/07/06 06:14:38;;;;;;;;;3.00;1.67;;;;;-147.17;100.00;59696.56;4961064;28;51051;-50
2021/07/06 06:17:03;;;;;;;;;1.67;1.67;;;;;-147.17;100.00;59696.56;4973040;28;51055;-51
2021/07/06 06:19:29;;;;;;;;;2.67;2.67;;;;;-147.17;100.00;59696.56;4955772;28;51124;-51
2021/07/06 06:21:54;;;;;;;;;3.33;1.00;;;;;-147.17;100.00;59696.56;4971546;28;51861;-50
2021/07/06 06:24:19;;;;;;;;;2.00;1.67;;;;;-147.17;100.00;59696.56;4969340;28;51031;-55
2021/07/06 06:26:47;;;;;;;;;2.00;2.00;;;;;-147.17;100.00;59696.56;4972708;28;51466;-55
2021/07/06 06:29:12;;;;;;;;;1.67;1.33;;;;;-147.17;100.00;59696.56;4974502;28;51497;-55
2021/07/06 06:31:37;;;;;;;;;3.67;3.00;;;;;-147.17;100.00;59696.56;4970663;28;51265;-54
2021/07/06 06:34:03;;;;;;;;;2.67;2.00;;;;;-147.17;100.00;59696.56;4975108;28;51243;-55
2021/07/06 06:36:28;;;;;;;;;2.00;1.33;;;;;-147.17;100.00;59696.56;4975515;28;51019;-54
2021/07/06 06:38:53;;;;;;;;;2.67;1.67;;;;;-147.17;100.00;59696.56;4976658;28;51093;-56
2021/07/06 06:41:19;;;;;;;;;1.33;1.00;;;;;-147.17;100.00;59696.56;4974188;28;51192;-59
2021/07/06 06:43:44;;;;;;;;;6.00;4.00;;;;;-147.17;100.00;59696.56;4954712;28;51031;-56
2021/07/06 06:46:09;;;;;;;;;2.33;2.00;;;;;-147.17;100.00;59696.56;4967752;28;51096;-55
2021/07/06 06:48:35;;;;;;;;;4.67;4.33;;;;;-147.17;100.00;59696.56;4974993;28;51090;-55
2021/07/06 06:51:00;;;;;;;;;9.00;7.00;;;;;-147.17;100.00;59696.56;4975788;28;51933;-57
2021/07/06 06:53:26;;;;;;;;;9.33;6.00;;;;;-147.17;100.00;59696.56;4975619;28;51050;-55
2021/07/06 06:55:51;;;;;;;;;3.67;3.00;;;;;-147.17;100.00;59696.56;4971503;28;51212;-56
2021/07/06 06:58:17;;;;;;;;;3.67;3.67;;;;;-147.17;100.00;59696.56;4973273;28;51007;-56
2021/07/06 07:00:42;;;;;;;;;2.00;1.00;;;;;-147.17;100.00;59696.56;4975217;28;51830;-56
2021/07/06 07:03:08;;;;;;;;;1.67;1.33;;;;;-147.17;100.00;59696.56;4957481;28;51171;-56
2021/07/06 07:05:33;;;;;;;;;2.67;2.67;;;;;-147.17;100.00;59696.56;4958009;28;50980;-54
2021/07/06 07:07:58;;;;;;;;;2.67;2.67;;;;;-147.17;100.00;59696.56;4975819;28;50939;-56
2021/07/06 07:10:27;;;;;;;;;2.33;2.33;;;;;-147.17;100.00;59696.56;4954652;28;51712;-56
2021/07/06 07:12:56;;;;;;;;;3.00;2.00;;;;;-147.17;100.00;59696.56;4973672;28;51223;-54
2021/07/06 07:15:22;;;;;;;;;2.67;2.00;;;;;-147.17;100.00;59696.56;4975605;28;51039;-56
2021/07/06 07:17:48;;;;;;;;;3.00;2.67;;;;;-147.17;100.00;59696.56;4975318;28;51149;-55
2021/07/06 07:20:13;;;;;;;;;3.00;1.67;;;;;-147.17;100.00;59696.56;4967692;28;51823;-56
2021/07/06 07:22:40;;;;;;;;;4.00;2.00;;;;;-147.17;100.00;59696.56;4973836;28;51121;-56
2021/07/06 07:25:06;;;;;;;;;5.67;4.33;;;;;-147.17;100.00;59696.56;4974837;28;50945;-54
2021/07/06 07:27:31;;;;;;;;;2.33;2.33;;;;;-147.17;100.00;59696.56;4955077;28;51348;-55
2021/07/06 07:29:57;;;;;;;;;3.67;3.67;;;;;-147.17;100.00;59696.56;4974400;28;50934;-56
2021/07/06 07:32:23;;;;;;;;;4.67;4.33;;;;;-147.17;100.00;59696.56;4974479;28;52148;-56
2021/07/06 07:34:48;;;;;;;;;6.33;4.67;;;;;-147.17;100.00;59696.56;4974569;28;51269;-56
2021/07/06 07:37:14;;;;;;;;;2.67;2.33;;;;;-147.17;100.00;59696.56;4976264;28;51153;-56
2021/07/06 07:39:40;;;;;;;;;4.00;3.67;;;;;-147.17;100.00;59696.56;4974586;28;53005;-56
2021/07/06 07:42:06;;;;;;;;;7.00;5.67;;;;;-147.17;100.00;59696.56;4968920;28;51166;-55
2021/07/06 07:44:31;;;;;;;;;2.67;2.67;;;;;-147.17;100.00;59696.56;4956713;28;51368;-56
2021/07/06 07:46:58;;;;;;;;;3.67;3.67;;;;;-147.17;100.00;59696.56;4974511;28;51196;-55
2021/07/06 07:49:23;;;;;;;;;2.00;1.33;;;;;-147.17;100.00;59696.56;4973564;28;53321;-57
2021/07/06 07:51:49;;;;;;;;;3.33;1.67;;;;;-147.17;100.00;59696.56;4965973;28;50950;-57
2021/07/06 07:54:15;;;;;;;;;2.67;2.33;;;;;-147.17;100.00;59696.56;4974806;28;51120;-55
2021/07/06 07:56:41;;;;;;;;;2.67;2.67;;;;;-147.17;100.00;59696.56;4975150;28;51109;-56
2021/07/06 07:59:08;;;;;;;;;5.00;3.00;;;;;-147.17;100.00;59696.56;4973898;28;52148;-55
2021/07/06 08:01:34;;;;;;;;;2.00;2.00;;;;;-147.17;100.00;59696.56;4973811;28;51037;-57
2021/07/06 08:03:59;;;;;;;;;4.67;4.00;;;;;-147.17;100.00;59696.56;4956730;28;51252;-54
2021/07/06 08:06:24;;;;;;;;;2.67;1.67;;;;;-147.17;100.00;59696.56;4974610;28;51296;-55
2021/07/06 08:08:50;;;;;;;;;3.00;3.00;;;;;-147.17;100.00;59696.56;4970302;28;51100;-56
2021/07/06 08:11:15;;;;;;;;;1.00;1.00;;;;;-147.17;100.00;59696.56;4965393;28;51103;-57
2021/07/06 08:13:41;;;;;;;;;2.33;1.00;;;;;-147.17;100.00;59696.56;4974466;28;51133;-57
2021/07/06 08:16:06;;;;;;;;;4.00;4.00;;;;;-147.17;100.00;59696.56;4959953;28;51355;-57
2021/07/06 08:18:32;;;;;;;;;6.00;3.33;;;;;-147.17;100.00;59696.56;4973884;28;52114;-56
2021/07/06 08:20:58;;;;;;;;;5.00;4.67;;;;;-147.17;100.00;59696.56;4974380;28;50973;-56
2021/07/06 08:23:24;;;;;;;;;4.00;4.00;;;;;-147.17;100.00;59696.56;4969052;28;51149;-55
2021/07/06 08:25:49;;;;;;;;;5.33;4.67;;;;;-147.17;100.00;59696.56;4972946;28;51270;-56
2021/07/06 08:28:15;;;;;;;;;2.33;2.33;;;;;-147.17;100.00;59696.56;4956451;28;51954;-56
2021/07/06 08:30:40;;;;;;;;;3.67;3.67;;;;;-147.17;100.00;59696.56;4973599;28;51034;-56
2021/07/06 08:33:07;;;;;;;;;4.00;3.33;;;;;-147.17;100.00;59696.56;4956299;28;51115;-56
2021/07/06 08:35:32;;;;;;;;;6.00;2.67;;;;;-147.17;100.00;59696.56;4974197;28;51265;-56
2021/07/06 08:37:58;;;;;;;;;3.33;3.33;;;;;-147.17;100.00;59696.56;4980464;28;51057;-56
2021/07/06 08:40:23;;;;;;;;;2.33;2.33;;;;;-147.17;100.00;59696.56;4973886;28;50955;-56
2021/07/06 08:42:50;;;;;;;;;3.33;2.33;;;;;-147.17;100.00;59696.56;4973781;28;51499;-56
2021/07/06 08:45:15;;;;;;;;;3.00;3.00;;;;;-147.17;100.00;59696.56;4973831;28;51229;-57
2021/07/06 08:47:47;;;;;;;;;6.33;5.33;;;;;-147.17;100.00;59696.56;4938837;28;51211;-55
2021/07/06 08:50:13;;;;;;;;;2.33;2.00;;;;;-147.17;100.00;59696.56;4973325;28;51132;-57
2021/07/06 08:52:44;;;;;;;;;4.33;2.67;;;;;-147.17;100.00;59696.56;4963434;28;51223;-56
2021/07/06 08:55:10;;;;;;;;;7.00;5.33;;;;;-147.17;100.00;59696.56;4973933;28;51191;-56
2021/07/06 08:57:40;;;;;;;;;3.00;2.00;;;;;-147.17;100.00;59696.56;4973554;28;53107;-56
2021/07/06 09:00:07;;;;;;;;;3.00;2.00;;;;;-147.17;100.00;59696.56;4960415;28;51068;-56
2021/07/06 09:02:33;;;;;;;;;6.33;5.00;;;;;-147.17;100.00;59696.56;4973265;28;51216;-56
2021/07/06 09:04:58;;;;;;;;;5.00;5.00;;;;;-147.17;100.00;59696.56;4972175;28;51023;-55
2021/07/06 09:07:39;;;;;;;;;5.67;5.67;;;;;-147.17;100.00;59696.56;4973565;28;51868;-56
2021/07/06 09:10:15;;;;;;;;;3.33;3.33;;;;;-147.17;100.00;59696.56;4966018;28;50971;-56
2021/07/06 09:12:41;;;;;;;;;7.00;5.67;;;;;-147.17;100.00;59696.56;4973436;28;50956;-56
2021/07/06 09:15:22;;;;;;;;;5.00;5.00;;;;;-147.17;100.00;59696.56;4956239;28;51418;-56
2021/07/06 09:18:11;;;;;;;;;3.33;3.33;;;;;-147.17;100.00;59696.56;4955494;28;52989;-57
2021/07/06 09:20:38;;;;;;;;;7.00;6.00;;;;;-147.17;100.00;59696.56;4975656;28;51285;-56
2021/07/06 09:23:17;;;;;;;;;3.00;2.67;;;;;-147.17;100.00;59696.56;4973259;28;50939;-54
2021/07/06 09:25:43;;;;;;;;;4.00;3.00;;;;;-147.17;100.00;59696.56;4973034;28;51396;-56
2021/07/06 09:28:24;;;;;;;;;4.33;3.67;;;;;-147.17;100.00;59696.56;4973010;28;51152;-55
2021/07/06 09:30:50;;;;;;;;;5.33;3.33;;;;;-147.17;100.00;59696.56;4972776;28;51056;-57
2021/07/06 09:33:29;;;;;;;;;5.33;5.00;;;;;-147.17;100.00;59696.56;4972714;28;50904;-56
2021/07/06 09:35:55;;;;;;;;;3.00;2.67;;;;;-147.17;100.00;59696.56;4973083;28;51253;-55
2021/07/06 09:38:21;;;;;;;;;2.67;2.67;;;;;-147.17;100.00;59696.56;4974852;28;51138;-56
2021/07/06 09:40:47;;;;;;;;;1.33;1.33;;;;;-147.17;100.00;59696.56;4972547;28;51139;-56
2021/07/06 09:43:19;;;;;;;;;3.00;2.00;;;;;-147.17;100.00;59696.56;4973045;28;51017;-55
2021/07/06 09:45:57;;;;;;;;;4.00;3.00;;;;;-147.17;100.00;59696.56;4972943;28;51298;-57
2021/07/06 09:48:24;;;;;;;;;2.67;2.33;;;;;-147.17;100.00;59696.56;4972295;28;52773;-57
2021/07/06 09:50:50;;;;;;;;;2.33;2.33;;;;;-147.17;100.00;59696.56;4955125;28;51166;-55
2021/07/06 09:53:29;;;;;;;;;3.00;2.33;;;;;-147.17;100.00;59696.56;4972631;28;50987;-57
2021/07/06 09:55:55;;;;;;;;;2.67;2.33;;;;;-147.17;100.00;59696.56;4973193;28;50927;-55
2021/07/06 09:58:21;;;;;;;;;2.67;2.67;;;;;-147.17;100.00;59696.56;4972331;28;52075;-56
2021/07/06 10:00:49;;;;;;;;;3.00;2.33;;;;;-147.17;100.00;59696.56;4971627;28;51096;-56
2021/07/06 10:03:15;;;;;;;;;3.67;3.67;;;;;-147.17;100.00;59696.56;4972033;28;51339;-57
2021/07/06 10:05:41;;;;;;;;;3.00;3.00;;;;;-147.17;100.00;59696.56;4972848;28;51264;-55
2021/07/06 10:08:07;;;;;;;;;3.00;3.00;;;;;-147.17;100.00;59696.56;4971922;28;51333;-57
2021/07/06 10:10:32;;;;;;;;;3.33;2.67;;;;;-147.17;100.00;59696.56;4972154;28;50990;-56
2021/07/06 10:12:58;;;;;;;;;3.00;2.00;;;;;-147.17;100.00;59696.56;4972387;28;51161;-56
2021/07/06 10:15:23;;;;;;;;;3.67;3.33;;;;;-147.17;100.00;59696.56;4955015;28;51211;-55
2021/07/06 10:17:51;;;;;;;;;2.33;2.33;;;;;-147.17;100.00;59696.56;4971724;28;52917;-56
2021/07/06 10:20:25;;;;;;;;;2.00;2.00;;;;;-147.17;100.00;59696.56;4972111;28;51055;-56
2021/07/06 10:22:52;;;;;;;;;2.67;2.67;;;;;-147.17;100.00;59696.56;4971978;28;50995;-57
2021/07/06 10:25:22;;;;;;;;;2.67;2.67;;;;;-147.17;100.00;59696.56;4972296;28;51313;-57
2021/07/06 10:27:54;;;;;;;;;3.33;3.33;;;;;-147.17;100.00;59696.56;4971544;28;51995;-55
2021/07/06 10:30:20;;;;;;;;;3.33;2.00;;;;;-147.17;100.00;59696.56;4971918;28;50982;-55
2021/07/06 10:32:49;;;;;;;;;3.00;2.67;;;;;-147.17;100.00;59696.56;4971969;28;51033;-56
2021/07/06 10:35:16;;;;;;;;;2.00;2.00;;;;;-147.17;100.00;59696.56;4972298;28;51272;-57
2021/07/06 10:37:43;;;;;;;;;3.67;3.00;;;;;-147.17;100.00;59696.56;4972520;28;52808;-56
2021/07/06 10:40:17;;;;;;;;;2.67;2.00;;;;;-147.17;100.00;59696.56;4972169;28;50962;-56
2021/07/06 10:42:45;;;;;;;;;2.33;2.00;;;;;-147.17;100.00;59696.56;4972204;28;51117;-57
2021/07/06 10:45:16;;;;;;;;;3.00;3.00;;;;;-147.17;100.00;59696.56;4972019;28;50872;-56
2021/07/06 10:47:46;;;;;;;;;5.00;4.33;;;;;-147.17;100.00;59696.56;4971916;28;51953;-56
2021/07/06 10:50:29;;;;;;;;;2.67;2.33;;;;;-147.17;100.00;59696.56;4971610;28;51112;-57
2021/07/06 10:53:14;;;;;;;;;2.00;2.00;;;;;-147.17;100.00;59696.56;4972267;28;51197;-58
2021/07/06 10:55:42;;;;;;;;;2.00;1.00;;;;;-147.17;100.00;59696.56;4972221;28;51318;-55
2021/07/06 10:58:07;;;;;;;;;3.67;3.00;;;;;-147.17;100.00;59696.56;4971682;28;51056;-55
2021/07/06 11:00:43;;;;;;;;;4.33;4.00;;;;;-147.17;100.00;59696.56;4971817;28;51041;-56
2021/07/06 11:03:16;;;;;;;;;3.33;3.33;;;;;-147.17;100.00;59696.56;4953850;28;51138;-56
2021/07/06 11:05:43;;;;;;;;;1.67;1.33;;;;;-147.17;100.00;59696.56;4971650;28;51215;-57
2021/07/06 11:08:41;;;;;;;;;3.00;3.00;;;;;-147.17;100.00;59696.56;4971199;28;52795;-57